Time;durP1;ratioP1;P1;durP2;ratioP2;P2;SDS_P1;SDS_P2;PMS_P1;PMS_P2;Temp;Humidity;BMP_temperature;BMP_pressure;BME280_temperature;BME280_humidity;BME280_pressure;Samples;Min_cycle;Max_cycle;Signal;HPM_P1;HPM_P2
2024/02/21 00:01:17;;;;;;;27.85;26.05;;;;;;;-1.25;100.00;101935.00;6298528;22;20023;-71
2024/02/21 00:03:48;;;;;;;29.98;27.98;;;;;;;-1.09;100.00;101933.06;6297957;22;20130;-70
2024/02/21 00:06:15;;;;;;;32.70;30.52;;;;;;;-1.18;100.00;101936.25;6299450;22;20033;-69
2024/02/21 00:08:44;;;;;;;31.65;29.65;;;;;;;-1.06;100.00;101930.28;6299568;22;20023;-70
2024/02/21 00:11:11;;;;;;;32.13;29.55;;;;;;;-1.10;100.00;101922.72;6299885;22;20100;-70
2024/02/21 00:13:38;;;;;;;31.15;29.15;;;;;;;-1.11;100.00;101919.28;6299601;22;20098;-70
2024/02/21 00:16:05;;;;;;;30.63;28.52;;;;;;;-1.12;100.00;101922.84;6299114;22;20026;-69
2024/02/21 00:18:32;;;;;;;31.45;29.25;;;;;;;-1.07;100.00;101915.53;6300150;22;20015;-69
2024/02/21 00:21:01;;;;;;;29.70;27.80;;;;;;;-1.29;100.00;101916.13;6299970;22;20030;-70
2024/02/21 00:23:28;;;;;;;32.90;30.88;;;;;;;-1.35;100.00;101919.13;6300471;22;20027;-69
2024/02/21 00:25:55;;;;;;;32.88;30.83;;;;;;;-1.23;100.00;101912.28;6299562;22;20030;-70
2024/02/21 00:28:22;;;;;;;29.25;27.25;;;;;;;-1.09;100.00;101914.81;6300328;22;20066;-70
2024/02/21 00:30:50;;;;;;;30.23;28.23;;;;;;;-1.20;100.00;101912.06;6299511;22;20023;-70
2024/02/21 00:33:17;;;;;;;28.92;27.15;;;;;;;-1.41;100.00;101909.91;6300266;22;20027;-70
2024/02/21 00:35:47;;;;;;;31.33;29.30;;;;;;;-1.43;100.00;101905.72;6300214;22;20023;-70
2024/02/21 00:38:15;;;;;;;31.38;29.48;;;;;;;-1.42;100.00;101903.03;6299532;22;20045;-71
2024/02/21 00:40:44;;;;;;;34.53;32.08;;;;;;;-1.32;100.00;101908.50;6301034;22;20061;-70
2024/02/21 00:43:10;;;;;;;31.30;29.40;;;;;;;-1.48;100.00;101903.44;6299577;22;20034;-70
2024/02/21 00:45:38;;;;;;;34.17;32.10;;;;;;;-1.62;100.00;101909.53;6299338;22;20027;-71
2024/02/21 00:48:06;;;;;;;35.88;33.55;;;;;;;-1.31;100.00;101907.53;6299061;22;20033;-70
2024/02/21 00:50:32;;;;;;;39.55;36.95;;;;;;;-0.85;100.00;101893.25;6298317;22;20019;-70
2024/02/21 00:52:59;;;;;;;42.25;39.30;;;;;;;-1.16;100.00;101898.72;6298268;22;20034;-70
2024/02/21 00:55:28;;;;;;;34.22;32.08;;;;;;;-1.40;100.00;101893.34;6299518;22;20023;-70
2024/02/21 00:57:55;;;;;;;35.13;33.10;;;;;;;-1.37;100.00;101887.09;6299009;22;20029;-70
2024/02/21 01:00:22;;;;;;;37.38;34.95;;;;;;;-1.30;100.00;101891.00;6294308;22;20023;-70
2024/02/21 01:02:49;;;;;;;34.03;31.67;;;;;;;-1.28;100.00;101896.91;6299297;22;20030;-70
2024/02/21 01:05:15;;;;;;;29.10;27.50;;;;;;;-1.57;100.00;101895.34;6298757;22;20387;-70
2024/02/21 01:07:42;;;;;;;33.55;31.35;;;;;;;-1.43;100.00;101903.13;6298348;22;20019;-70
2024/02/21 01:10:10;;;;;;;36.92;33.85;;;;;;;-1.62;100.00;101899.09;6298725;22;20033;-69
2024/02/21 01:12:38;;;;;;;37.53;35.13;;;;;;;-1.45;100.00;101897.19;6298333;22;20023;-70
2024/02/21 01:15:06;;;;;;;34.38;32.25;;;;;;;-1.45;100.00;101892.81;6298781;22;20057;-70
2024/02/21 01:17:33;;;;;;;30.88;28.77;;;;;;;-1.24;100.00;101897.53;6299274;22;20226;-70
2024/02/21 01:20:00;;;;;;;28.13;26.52;;;;;;;-1.12;100.00;101896.78;6299515;22;20806;-69
2024/02/21 01:22:27;;;;;;;29.42;27.38;;;;;;;-1.24;100.00;101890.59;6299286;22;20027;-70
2024/02/21 01:24:54;;;;;;;32.83;30.45;;;;;;;-1.49;100.00;101896.53;6299353;22;20023;-70
2024/02/21 01:27:20;;;;;;;29.85;27.95;;;;;;;-1.29;100.00;101897.03;6299262;22;20098;-69
2024/02/21 01:29:49;;;;;;;32.15;30.08;;;;;;;-1.24;100.00;101898.41;6299610;22;20122;-70
2024/02/21 01:32:16;;;;;;;29.65;27.83;;;;;;;-1.29;100.00;101891.81;6298750;22;20022;-69
2024/02/21 01:34:45;;;;;;;30.98;28.88;;;;;;;-1.32;100.00;101890.25;6299587;22;20031;-69
2024/02/21 01:37:12;;;;;;;28.98;27.02;;;;;;;-1.26;100.00;101884.63;6299764;22;20102;-70
2024/02/21 01:39:39;;;;;;;33.22;30.73;;;;;;;-1.38;100.00;101882.81;6299170;22;20019;-70
2024/02/21 01:42:06;;;;;;;30.92;28.65;;;;;;;-1.80;100.00;101884.63;6299518;22;20015;-70
2024/02/21 01:44:33;;;;;;;26.60;24.98;;;;;;;-1.65;100.00;101880.22;6299789;22;20023;-69
2024/02/21 01:47:02;;;;;;;28.60;26.80;;;;;;;-1.67;100.00;101877.69;6299712;22;20378;-70
2024/02/21 01:49:28;;;;;;;37.17;34.63;;;;;;;-1.59;100.00;101877.22;6299196;22;20468;-70
2024/02/21 01:51:56;;;;;;;36.00;33.80;;;;;;;-1.50;100.00;101866.22;6298766;22;20019;-70
2024/02/21 01:54:23;;;;;;;35.47;32.75;;;;;;;-1.38;100.00;101869.78;6299195;22;20023;-71
2024/02/21 01:56:51;;;;;;;32.30;30.08;;;;;;;-1.14;100.00;101863.91;6299176;22;20117;-70
2024/02/21 01:59:19;;;;;;;36.78;34.58;;;;;;;-1.26;100.00;101871.59;6294373;22;20372;-70
2024/02/21 02:01:47;;;;;;;39.60;37.10;;;;;;;-1.27;100.00;101869.06;6299820;22;20029;-70
2024/02/21 02:04:16;;;;;;;42.42;39.40;;;;;;;-1.41;100.00;101862.16;6299381;22;20046;-70
2024/02/21 02:06:42;;;;;;;38.08;35.47;;;;;;;-1.12;100.00;101856.78;6300327;22;20468;-70
2024/02/21 02:09:09;;;;;;;40.28;37.58;;;;;;;-1.06;100.00;101859.84;6300528;22;20537;-70
2024/02/21 02:11:37;;;;;;;39.15;36.55;;;;;;;-0.96;100.00;101863.50;6300002;22;20023;-70
2024/02/21 02:14:04;;;;;;;38.65;36.00;;;;;;;-1.32;100.00;101866.78;6299748;22;20023;-70
2024/02/21 02:16:31;;;;;;;37.72;35.22;;;;;;;-1.06;100.00;101861.59;6299632;22;20181;-69
2024/02/21 02:18:58;;;;;;;40.08;37.38;;;;;;;-0.80;100.00;101863.31;6299497;22;20023;-70
2024/02/21 02:21:30;;;;;;;41.58;38.78;;;;;;;-1.11;100.00;101864.53;6299421;22;20423;-69
2024/02/21 02:24:00;;;;;;;36.92;34.72;;;;;;;-1.10;100.00;101862.75;6299293;22;20023;-70
2024/02/21 02:26:27;;;;;;;36.17;33.70;;;;;;;-1.18;100.00;101864.13;6299640;22;20635;-69
2024/02/21 02:28:54;;;;;;;34.63;32.53;;;;;;;-1.54;100.00;101861.28;6298679;22;20473;-70
2024/02/21 02:31:21;;;;;;;38.38;35.75;;;;;;;-1.22;100.00;101854.81;6299525;22;20341;-70
2024/02/21 02:33:49;;;;;;;38.80;36.53;;;;;;;-1.31;100.00;101865.84;6299171;22;20022;-70
2024/02/21 02:36:18;;;;;;;34.75;32.65;;;;;;;-1.14;100.00;101859.53;6298621;22;20034;-70
2024/02/21 02:38:45;;;;;;;35.42;33.05;;;;;;;-1.25;100.00;101864.59;6299273;22;20423;-70
2024/02/21 02:41:13;;;;;;;38.30;35.83;;;;;;;-1.62;100.00;101864.41;6299149;22;20045;-70
2024/02/21 02:43:40;;;;;;;41.85;39.22;;;;;;;-1.44;100.00;101875.41;6299190;22;20097;-70
2024/02/21 02:46:07;;;;;;;33.58;31.48;;;;;;;-1.33;100.00;101872.94;6298433;22;20023;-70
2024/02/21 02:48:34;;;;;;;35.75;33.17;;;;;;;-1.11;100.00;101874.13;6299349;22;20019;-69
2024/02/21 02:51:01;;;;;;;35.60;33.30;;;;;;;-1.53;100.00;101868.19;6298811;22;20046;-69
2024/02/21 02:53:27;;;;;;;37.05;34.70;;;;;;;-1.17;100.00;101860.56;6298604;22;20034;-69
2024/02/21 02:55:54;;;;;;;32.00;30.00;;;;;;;-1.17;100.00;101865.78;6298244;22;20033;-70
2024/02/21 02:58:22;;;;;;;36.53;34.13;;;;;;;-1.25;100.00;101862.81;6298525;22;20023;-70
2024/02/21 03:00:49;;;;;;;37.03;34.15;;;;;;;-1.04;100.00;101860.56;6290754;22;20034;-70
2024/02/21 03:03:16;;;;;;;33.60;30.77;;;;;;;-1.14;100.00;101856.91;6299238;22;20027;-70
2024/02/21 03:05:44;;;;;;;37.13;34.92;;;;;;;-1.29;100.00;101863.16;6298367;22;20023;-70
2024/02/21 03:08:11;;;;;;;38.33;35.63;;;;;;;-1.11;100.00;101861.94;6298439;22;20027;-69
2024/02/21 03:10:38;;;;;;;36.80;34.60;;;;;;;-0.90;100.00;101861.44;6299368;22;20024;-70
2024/02/21 03:13:06;;;;;;;35.75;33.55;;;;;;;-1.24;100.00;101864.53;6298434;22;20063;-70
2024/02/21 03:15:34;;;;;;;38.30;35.83;;;;;;;-1.18;100.00;101852.81;6300731;22;20027;-70
2024/02/21 03:18:01;;;;;;;42.45;39.33;;;;;;;-1.24;100.00;101861.03;6300739;22;20472;-70
2024/02/21 03:20:28;;;;;;;38.92;36.42;;;;;;;-0.87;100.00;101864.66;6300329;22;20020;-70
2024/02/21 03:22:55;;;;;;;39.75;36.58;;;;;;;-0.76;100.00;101863.91;6300847;22;20061;-72
2024/02/21 03:25:22;;;;;;;36.90;34.55;;;;;;;-0.75;100.00;101868.22;6300475;22;20030;-70
2024/02/21 03:27:49;;;;;;;39.42;36.90;;;;;;;-0.72;100.00;101868.00;6300782;22;20539;-70
2024/02/21 03:30:19;;;;;;;38.25;35.65;;;;;;;-0.73;100.00;101850.66;6300949;22;20027;-70
2024/02/21 03:32:49;;;;;;;36.05;33.55;;;;;;;-0.68;100.00;101866.03;6301415;22;20081;-70
2024/02/21 03:35:16;;;;;;;36.88;34.25;;;;;;;-0.58;100.00;101867.88;6301020;22;20024;-69
2024/02/21 03:37:43;;;;;;;41.75;39.05;;;;;;;-0.68;100.00;101871.25;6300183;22;20084;-71
2024/02/21 03:40:11;;;;;;;36.25;33.70;;;;;;;-0.50;100.00;101872.59;6301038;22;20427;-69
2024/02/21 03:42:38;;;;;;;35.40;32.83;;;;;;;-0.48;100.00;101874.16;6301006;22;20651;-70
2024/02/21 03:45:06;;;;;;;41.47;38.28;;;;;;;-0.43;100.00;101876.44;6300554;22;20023;-69
2024/02/21 03:47:33;;;;;;;40.35;37.45;;;;;;;-0.49;100.00;101876.84;6300353;22;20030;-69
2024/02/21 03:50:01;;;;;;;37.80;34.90;;;;;;;-0.35;100.00;101870.69;6300917;22;20073;-69
2024/02/21 03:52:28;;;;;;;36.45;33.85;;;;;;;-0.49;100.00;101875.09;6300552;22;20019;-70
2024/02/21 03:54:56;;;;;;;45.00;41.47;;;;;;;-0.30;100.00;101869.44;6300842;22;20829;-70
2024/02/21 03:57:23;;;;;;;46.25;42.63;;;;;;;-0.24;100.00;101865.56;6301118;22;20019;-69
2024/02/21 03:59:51;;;;;;;47.63;43.88;;;;;;;-0.26;100.00;101867.44;6295371;22;20062;-69
2024/02/21 04:02:21;;;;;;;42.58;39.38;;;;;;;0.02;100.00;101866.31;6300548;22;20019;-70
2024/02/21 04:04:48;;;;;;;43.08;39.70;;;;;;;0.01;100.00;101874.28;6299222;22;20020;-70
2024/02/21 04:07:16;;;;;;;35.30;32.80;;;;;;;-0.27;100.00;101864.00;6299814;22;20024;-70
2024/02/21 04:09:43;;;;;;;40.25;36.60;;;;;;;-0.22;100.00;101874.13;6300453;22;20047;-69
2024/02/21 04:12:13;;;;;;;39.47;36.58;;;;;;;-0.24;100.00;101874.22;6300656;22;20356;-70
2024/02/21 04:14:40;;;;;;;34.38;31.83;;;;;;;-0.11;100.00;101868.97;6300533;22;20019;-71
2024/02/21 04:17:07;;;;;;;35.92;33.08;;;;;;;-0.15;100.00;101869.28;6300059;22;20422;-70
2024/02/21 04:19:34;;;;;;;39.20;36.13;;;;;;;0.00;100.00;101873.47;6300974;22;20356;-70
2024/02/21 04:22:01;;;;;;;38.33;35.53;;;;;;;0.17;100.00;101874.84;6300329;22;20032;-70
2024/02/21 04:24:30;;;;;;;49.28;44.88;;;;;;;0.23;100.00;101869.19;6300735;22;20023;-69
2024/02/21 04:26:57;;;;;;;61.13;56.08;;;;;;;0.30;100.00;101864.34;6300624;22;20030;-70
2024/02/21 04:29:24;;;;;;;50.58;46.78;;;;;;;-0.01;100.00;101866.53;6299893;22;20015;-70
2024/02/21 04:31:51;;;;;;;49.85;45.55;;;;;;;0.23;100.00;101866.56;6300286;22;20019;-69
2024/02/21 04:34:18;;;;;;;53.33;48.92;;;;;;;0.33;100.00;101872.78;6299562;22;20102;-70
2024/02/21 04:36:46;;;;;;;65.10;60.00;;;;;;;0.27;100.00;101875.84;6300137;22;20023;-70
2024/02/21 04:39:13;;;;;;;59.92;55.33;;;;;;;0.33;100.00;101862.34;6300042;22;20061;-69
2024/02/21 04:41:41;;;;;;;56.03;51.75;;;;;;;0.19;100.00;101880.81;6299656;22;20102;-70
2024/02/21 04:44:08;;;;;;;56.75;52.38;;;;;;;0.29;100.00;101879.19;6299191;22;20023;-70
2024/02/21 04:46:35;;;;;;;68.78;63.08;;;;;;;0.29;100.00;101889.66;6300085;22;20106;-70
2024/02/21 04:49:02;;;;;;;55.88;51.60;;;;;;;0.30;100.00;101883.47;6299650;22;20023;-70
2024/02/21 04:51:29;;;;;;;54.58;50.50;;;;;;;0.43;100.00;101886.06;6299094;22;20054;-69
2024/02/21 04:53:56;;;;;;;45.90;42.50;;;;;;;0.48;100.00;101888.31;6300040;22;20035;-70
2024/02/21 04:56:23;;;;;;;40.58;37.83;;;;;;;0.58;100.00;101882.31;6299268;22;20471;-70
2024/02/21 04:58:51;;;;;;;42.35;39.40;;;;;;;0.69;100.00;101887.56;6299327;22;20081;-70
2024/02/21 05:01:18;;;;;;;40.88;37.97;;;;;;;0.66;100.00;101887.78;6294497;22;20055;-70
2024/02/21 05:03:45;;;;;;;42.97;40.08;;;;;;;0.68;100.00;101899.00;6299916;22;20030;-70
2024/02/21 05:06:12;;;;;;;39.80;36.80;;;;;;;0.69;100.00;101895.41;6299036;22;20111;-70
2024/02/21 05:08:39;;;;;;;38.92;36.22;;;;;;;0.74;100.00;101899.50;6299521;22;20084;-70
2024/02/21 05:11:06;;;;;;;36.33;33.58;;;;;;;0.59;100.00;101904.91;6299656;22;20034;-70
2024/02/21 05:13:33;;;;;;;32.67;30.27;;;;;;;0.67;100.00;101904.34;6300082;22;20696;-70
2024/02/21 05:16:02;;;;;;;31.83;29.33;;;;;;;0.90;100.00;101908.69;6299342;22;20102;-70
2024/02/21 05:18:29;;;;;;;37.22;34.38;;;;;;;0.84;100.00;101896.06;6298966;22;20023;-70
2024/02/21 05:20:56;;;;;;;35.97;33.45;;;;;;;0.71;100.00;101907.56;6299084;22;20027;-70
2024/02/21 05:23:25;;;;;;;33.85;31.35;;;;;;;0.77;100.00;101904.50;6299744;22;20029;-69
2024/02/21 05:25:53;;;;;;;38.05;34.55;;;;;;;0.74;100.00;101920.41;6299976;22;20102;-69
2024/02/21 05:28:20;;;;;;;38.20;35.50;;;;;;;0.90;100.00;101919.16;6299349;22;20027;-69
2024/02/21 05:30:47;;;;;;;35.28;32.85;;;;;;;1.03;100.00;101915.63;6299271;22;20019;-70
2024/02/21 05:33:20;;;;;;;34.22;31.40;;;;;;;0.83;100.00;101910.09;6300367;22;20023;-70
2024/02/21 05:35:48;;;;;;;36.92;34.33;;;;;;;1.88;100.00;101918.75;6300142;22;20733;-70
2024/02/21 05:38:15;;;;;;;37.30;34.60;;;;;;;6.21;100.00;101917.88;6298749;22;20491;-70
2024/02/21 05:40:42;;;;;;;33.80;31.58;;;;;;;3.83;100.00;101921.94;6299021;22;20030;-70
2024/02/21 05:43:09;;;;;;;31.35;29.23;;;;;;;1.63;100.00;101919.78;6298119;22;20368;-70
2024/02/21 05:45:36;;;;;;;29.05;26.98;;;;;;;1.23;100.00;101919.38;6297535;22;20020;-70
2024/02/21 05:48:04;;;;;;;31.42;29.33;;;;;;;1.11;100.00;101921.13;6297839;22;20023;-70
2024/02/21 05:50:33;;;;;;;31.80;29.60;;;;;;;1.20;100.00;101915.22;6297709;22;20020;-70
2024/02/21 05:53:00;;;;;;;33.13;30.67;;;;;;;1.14;100.00;101923.53;6297004;22;20030;-70
2024/02/21 05:55:27;;;;;;;34.53;32.33;;;;;;;1.21;100.00;101918.66;6297577;22;20460;-70
2024/02/21 05:57:55;;;;;;;33.67;31.48;;;;;;;1.36;100.00;101915.72;6297220;22;20030;-70
2024/02/21 06:00:22;;;;;;;32.00;29.80;;;;;;;1.10;100.00;101915.06;6292324;22;20096;-70
2024/02/21 06:02:49;;;;;;;33.58;31.08;;;;;;;1.19;100.00;101920.56;6298023;22;20023;-70
2024/02/21 06:05:19;;;;;;;33.50;31.20;;;;;;;1.25;100.00;101920.94;6295503;22;20023;-70
2024/02/21 06:07:47;;;;;;;34.17;31.58;;;;;;;1.16;100.00;101924.25;6297096;22;20023;-70
2024/02/21 06:10:15;;;;;;;33.70;31.30;;;;;;;1.33;100.00;101923.81;6296846;22;20019;-70
2024/02/21 06:12:42;;;;;;;35.50;33.10;;;;;;;1.60;100.00;101926.13;6297979;22;20380;-70
2024/02/21 06:15:09;;;;;;;35.25;32.85;;;;;;;1.65;100.00;101924.91;6297565;22;20031;-70
2024/02/21 06:17:36;;;;;;;37.03;34.53;;;;;;;1.66;100.00;101932.66;6298794;22;20098;-70
2024/02/21 06:20:04;;;;;;;39.00;36.30;;;;;;;1.64;100.00;101942.44;6298672;22;20019;-70
2024/02/21 06:22:31;;;;;;;36.28;33.67;;;;;;;1.70;100.00;101941.97;6298843;22;20360;-70
2024/02/21 06:24:59;;;;;;;37.88;35.17;;;;;;;1.80;100.00;101948.16;6298935;22;20793;-70
2024/02/21 06:27:26;;;;;;;38.78;35.45;;;;;;;1.92;100.00;101950.78;6297989;22;20026;-70
2024/02/21 06:29:53;;;;;;;38.85;36.05;;;;;;;2.02;100.00;101954.34;6298777;22;20034;-71
2024/02/21 06:32:20;;;;;;;39.70;37.00;;;;;;;2.17;100.00;101953.13;6299165;22;20026;-70
2024/02/21 06:34:52;;;;;;;44.05;40.42;;;;;;;2.33;100.00;101955.41;6297903;22;20424;-70
2024/02/21 06:37:22;;;;;;;41.28;38.40;;;;;;;2.30;100.00;101958.25;6298316;22;20402;-70
2024/02/21 06:39:49;;;;;;;41.55;38.33;;;;;;;2.37;100.00;101967.28;6298623;22;20020;-69
2024/02/21 06:42:17;;;;;;;42.63;39.25;;;;;;;2.37;100.00;101964.66;6299278;22;20371;-70
2024/02/21 06:44:45;;;;;;;40.80;37.78;;;;;;;2.49;100.00;101973.34;6299356;22;20101;-69
2024/02/21 06:47:12;;;;;;;38.90;36.10;;;;;;;2.64;100.00;101963.44;6298865;22;20734;-70
2024/02/21 06:49:39;;;;;;;39.58;36.78;;;;;;;2.62;100.00;101974.03;6300114;22;20051;-69
2024/02/21 06:52:06;;;;;;;45.72;42.42;;;;;;;2.80;100.00;101982.22;6301089;22;20019;-70
2024/02/21 06:54:33;;;;;;;45.72;42.33;;;;;;;2.88;100.00;101976.34;6301615;22;20015;-70
2024/02/21 06:57:00;;;;;;;43.08;39.88;;;;;;;2.85;100.00;101973.97;6300237;22;20027;-70
2024/02/21 06:59:28;;;;;;;43.28;39.53;;;;;;;2.89;100.00;101970.97;6298737;22;20023;-69
2024/02/21 07:01:56;;;;;;;41.13;38.03;;;;;;;2.93;100.00;101977.63;6298965;22;20027;-70
2024/02/21 07:04:23;;;;;;;44.90;41.50;;;;;;;2.96;100.00;101979.16;6301170;22;20019;-70
2024/02/21 07:06:50;;;;;;;40.53;37.53;;;;;;;2.81;100.00;101976.00;6300160;22;20023;-69
2024/02/21 07:09:17;;;;;;;42.63;38.97;;;;;;;2.77;100.00;101974.59;6301208;22;20050;-69
2024/02/21 07:11:45;;;;;;;41.45;38.25;;;;;;;2.77;100.00;101974.59;6299925;22;20026;-70
2024/02/21 07:14:12;;;;;;;41.88;38.63;;;;;;;2.97;100.00;101965.94;6299901;22;20672;-70
2024/02/21 07:16:40;;;;;;;47.15;43.40;;;;;;;3.05;100.00;101975.78;6298083;22;20023;-70
2024/02/21 07:19:07;;;;;;;44.53;41.17;;;;;;;3.13;100.00;101975.16;6298407;22;20027;-70
2024/02/21 07:21:34;;;;;;;46.90;43.35;;;;;;;3.08;100.00;101970.28;6299404;22;20023;-70
2024/02/21 07:24:01;;;;;;;45.65;42.05;;;;;;;3.16;100.00;101975.75;6298938;22;20024;-69
2024/02/21 07:26:28;;;;;;;47.63;43.97;;;;;;;3.17;100.00;101968.69;6299081;22;20359;-70
2024/02/21 07:28:55;;;;;;;50.28;45.58;;;;;;;3.18;100.00;101965.13;6298742;22;20034;-70
2024/02/21 07:31:22;;;;;;;44.85;41.25;;;;;;;3.26;100.00;101967.94;6299693;22;20023;-70
2024/02/21 07:33:50;;;;;;;49.15;45.20;;;;;;;3.44;100.00;101966.41;6300400;22;20057;-70
2024/02/21 07:36:25;;;;;;;48.35;44.65;;;;;;;3.54;100.00;101974.34;6299989;22;20098;-70
2024/02/21 07:38:52;;;;;;;47.40;43.60;;;;;;;3.50;100.00;101983.44;6299965;22;20034;-70
2024/02/21 07:41:19;;;;;;;44.50;41.10;;;;;;;3.57;100.00;101975.88;6299215;22;20027;-70
2024/02/21 07:43:46;;;;;;;48.75;45.05;;;;;;;3.66;100.00;101967.22;6299134;22;20027;-70
2024/02/21 07:46:12;;;;;;;48.13;44.53;;;;;;;3.88;100.00;101974.13;6299770;22;20037;-69
2024/02/21 07:48:39;;;;;;;46.78;43.22;;;;;;;3.86;100.00;101963.72;6299331;22;20462;-70
2024/02/21 07:51:07;;;;;;;51.38;47.47;;;;;;;3.99;100.00;101973.19;6299939;22;20023;-69
2024/02/21 07:53:34;;;;;;;51.28;47.58;;;;;;;4.06;100.00;101964.66;6300569;22;20022;-70
2024/02/21 07:56:02;;;;;;;51.80;47.90;;;;;;;4.21;100.00;101969.56;6300130;22;20371;-70
2024/02/21 07:58:28;;;;;;;51.78;47.92;;;;;;;4.25;100.00;101968.31;6299925;22;20353;-71
2024/02/21 08:00:55;;;;;;;59.97;55.78;;;;;;;4.18;100.00;101970.66;6294560;22;20030;-69
2024/02/21 08:03:23;;;;;;;55.75;51.75;;;;;;;4.28;100.00;101966.22;6300671;22;20023;-70
2024/02/21 08:05:50;;;;;;;53.03;49.05;;;;;;;4.41;100.00;101970.41;6300422;22;20429;-70
2024/02/21 08:08:20;;;;;;;49.85;46.03;;;;;;;4.43;100.00;101974.59;6300086;22;20019;-69
2024/02/21 08:10:47;;;;;;;54.78;50.58;;;;;;;4.57;100.00;101968.94;6299972;22;20126;-71
2024/02/21 08:13:14;;;;;;;54.83;50.72;;;;;;;4.46;100.00;101974.31;6300392;22;20026;-70
2024/02/21 08:15:41;;;;;;;53.85;49.78;;;;;;;4.55;100.00;101970.88;6299836;22;20024;-70
2024/02/21 08:18:08;;;;;;;55.90;51.70;;;;;;;4.68;100.00;101972.41;6300766;22;20023;-70
2024/02/21 08:20:35;;;;;;;57.08;52.88;;;;;;;4.78;100.00;101966.19;6300549;22;20829;-70
2024/02/21 08:23:02;;;;;;;55.20;51.05;;;;;;;4.76;100.00;101969.94;6300043;22;20023;-70
2024/02/21 08:25:30;;;;;;;59.60;55.22;;;;;;;4.87;100.00;101969.81;6299189;22;20049;-69
2024/02/21 08:27:59;;;;;;;54.30;50.50;;;;;;;4.92;100.00;101962.31;6299577;22;20031;-70
2024/02/21 08:30:29;;;;;;;57.40;53.40;;;;;;;5.09;100.00;101960.78;6299808;22;20031;-70
2024/02/21 08:32:56;;;;;;;55.92;51.20;;;;;;;5.33;100.00;101960.34;6300049;22;20031;-70
2024/02/21 08:35:23;;;;;;;55.30;51.33;;;;;;;5.45;100.00;101955.75;6299948;22;20023;-70
2024/02/21 08:37:50;;;;;;;58.00;53.90;;;;;;;5.58;100.00;101956.28;6299401;22;20027;-70
2024/02/21 08:40:20;;;;;;;58.80;54.40;;;;;;;5.59;100.00;101965.00;6299381;22;20468;-69
2024/02/21 08:42:49;;;;;;;58.58;54.47;;;;;;;5.84;100.00;101960.91;6299538;22;20065;-69
2024/02/21 08:45:16;;;;;;;67.72;63.00;;;;;;;6.05;100.00;101958.94;6299107;22;20035;-70
2024/02/21 08:47:44;;;;;;;65.20;60.80;;;;;;;6.24;100.00;101958.00;6299076;22;20107;-69
2024/02/21 08:50:11;;;;;;;58.83;54.72;;;;;;;6.73;100.00;101955.03;6299235;22;20350;-70
2024/02/21 08:52:38;;;;;;;59.10;55.00;;;;;;;6.92;100.00;101960.16;6300380;22;20405;-70
2024/02/21 08:55:06;;;;;;;56.70;52.90;;;;;;;6.81;100.00;101965.69;6299983;22;20721;-70
2024/02/21 08:57:36;;;;;;;54.65;50.70;;;;;;;7.21;100.00;101964.38;6299440;22;20470;-71
2024/02/21 09:00:09;;;;;;;53.97;49.47;;;;;;;7.31;100.00;101955.38;6293707;22;20023;-70
2024/02/21 09:02:38;;;;;;;54.42;50.70;;;;;;;7.69;100.00;101952.47;6297998;22;20365;-70
2024/02/21 09:05:06;;;;;;;53.83;50.33;;;;;;;7.69;100.00;101960.41;6294561;22;20023;-70
2024/02/21 09:07:33;;;;;;;53.05;49.78;;;;;;;7.58;100.00;101953.56;6297586;22;20357;-70
2024/02/21 09:10:00;;;;;;;49.83;46.63;;;;;;;7.82;100.00;101962.63;6297189;22;20016;-70
2024/02/21 09:12:27;;;;;;;50.50;47.40;;;;;;;7.90;100.00;101954.75;6297141;22;20027;-70
2024/02/21 09:14:54;;;;;;;50.22;47.13;;;;;;;8.01;100.00;101949.97;6296962;22;20063;-69
2024/02/21 09:17:25;;;;;;;48.80;45.95;;;;;;;8.12;100.00;101954.16;6296586;22;20023;-70
2024/02/21 09:19:52;;;;;;;48.08;45.17;;;;;;;8.29;100.00;101962.16;6297484;22;20023;-70
2024/02/21 09:22:19;;;;;;;46.78;44.05;;;;;;;8.36;100.00;101960.53;6298014;22;20026;-70
2024/02/21 09:24:47;;;;;;;47.97;44.78;;;;;;;8.21;100.00;101952.38;6296160;22;20019;-70
2024/02/21 09:27:14;;;;;;;45.88;42.88;;;;;;;8.27;100.00;101955.22;6296800;22;20026;-70
2024/02/21 09:29:41;;;;;;;51.10;47.90;;;;;;;8.36;100.00;101952.59;6297737;22;20338;-70
2024/02/21 09:32:07;;;;;;;49.90;47.00;;;;;;;8.64;100.00;101955.84;6297157;22;20022;-70
2024/02/21 09:34:36;;;;;;;53.33;49.75;;;;;;;8.74;100.00;101951.22;6296449;22;20665;-71
2024/02/21 09:37:03;;;;;;;49.55;46.65;;;;;;;8.67;100.00;101955.50;6296040;22;20023;-70
2024/02/21 09:39:30;;;;;;;55.83;52.42;;;;;;;9.21;100.00;101952.41;6296021;22;20114;-70
2024/02/21 09:42:04;;;;;;;60.28;56.55;;;;;;;9.39;100.00;101943.25;6297016;22;20030;-70
2024/02/21 09:44:37;;;;;;;52.28;49.38;;;;;;;9.44;100.00;101942.78;6296206;22;20030;-71
2024/02/21 09:47:05;;;;;;;51.28;48.38;;;;;;;9.53;100.00;101939.09;6297398;22;20448;-71
2024/02/21 09:49:33;;;;;;;48.17;45.25;;;;;;;9.51;100.00;101941.09;6297808;22;20023;-70
2024/02/21 09:52:05;;;;;;;46.80;44.10;;;;;;;9.71;100.00;101938.88;6297175;22;20029;-70
2024/02/21 09:54:33;;;;;;;42.97;40.38;;;;;;;9.69;100.00;101934.75;6296409;22;20049;-70
2024/02/21 09:57:01;;;;;;;42.22;39.10;;;;;;;9.70;100.00;101937.22;6297184;22;20813;-72
2024/02/21 09:59:29;;;;;;;41.78;39.08;;;;;;;9.94;100.00;101928.34;6296494;22;20139;-71
2024/02/21 10:01:56;;;;;;;39.83;37.08;;;;;;;10.04;100.00;101933.44;6292241;22;20023;-71
2024/02/21 10:04:23;;;;;;;38.88;36.47;;;;;;;10.17;100.00;101930.25;6297971;22;20055;-70
2024/02/21 10:06:50;;;;;;;36.67;34.40;;;;;;;9.94;100.00;101920.38;6298317;22;20019;-70
2024/02/21 10:09:27;;;;;;;36.58;34.28;;;;;;;9.73;100.00;101918.31;6298473;22;20030;-70
2024/02/21 10:11:55;;;;;;;38.58;36.28;;;;;;;10.06;100.00;101921.66;6297844;22;20076;-70
2024/02/21 10:14:23;;;;;;;39.60;37.13;;;;;;;10.29;100.00;101924.41;6298563;22;20026;-71
2024/02/21 10:16:57;;;;;;;36.80;34.70;;;;;;;10.19;100.00;101914.97;6298207;22;20015;-72
2024/02/21 10:19:26;;;;;;;34.47;32.47;;;;;;;9.84;100.00;101911.81;6298983;22;20023;-70
2024/02/21 10:22:04;;;;;;;34.28;31.90;;;;;;;9.82;100.00;101901.38;6298306;22;20424;-71
2024/02/21 10:24:33;;;;;;;34.60;32.08;;;;;;;10.03;100.00;101898.13;6297652;22;20026;-72
2024/02/21 10:27:03;;;;;;;34.22;32.13;;;;;;;10.14;100.00;101888.13;6297837;22;20092;-72
2024/02/21 10:29:30;;;;;;;31.10;29.30;;;;;;;10.29;100.00;101889.88;6298217;22;20030;-71
2024/02/21 10:32:06;;;;;;;35.75;33.50;;;;;;;10.17;100.00;101891.25;6298323;22;20502;-72
2024/02/21 10:34:33;;;;;;;34.53;32.42;;;;;;;10.26;100.00;101889.38;6298400;22;20026;-72
2024/02/21 10:37:03;;;;;;;34.13;32.20;;;;;;;10.22;100.00;101880.91;6298139;22;20027;-72
2024/02/21 10:39:30;;;;;;;31.15;29.25;;;;;;;10.23;100.00;101874.63;6297972;22;20019;-72
2024/02/21 10:42:03;;;;;;;32.92;30.20;;;;;;;10.05;100.00;101879.38;6298697;22;20023;-72
2024/02/21 10:44:31;;;;;;;32.35;30.45;;;;;;;9.69;100.00;101873.75;6299133;22;20069;-73
2024/02/21 10:46:58;;;;;;;34.10;31.90;;;;;;;9.94;100.00;101869.97;6298538;22;20368;-72
2024/02/21 10:49:26;;;;;;;38.28;36.08;;;;;;;10.05;100.00;101864.28;6298385;22;20020;-72
2024/02/21 10:52:00;;;;;;;39.85;37.15;;;;;;;10.11;100.00;101868.06;6298166;22;20023;-72
2024/02/21 10:54:40;;;;;;;36.15;33.95;;;;;;;10.24;100.00;101854.22;6299298;22;20023;-72
2024/02/21 10:57:11;;;;;;;37.50;35.10;;;;;;;10.00;100.00;101856.00;6298569;22;20102;-71
2024/02/21 10:59:40;;;;;;;35.03;32.92;;;;;;;9.68;100.00;101856.97;6298275;22;20457;-72
2024/02/21 11:02:07;;;;;;;35.90;33.70;;;;;;;9.98;100.00;101850.03;6293050;22;20534;-72
2024/02/21 11:04:36;;;;;;;35.72;33.50;;;;;;;9.85;100.00;101849.78;6298852;22;20023;-73
2024/02/21 11:07:04;;;;;;;33.97;31.85;;;;;;;9.77;100.00;101847.16;6298582;22;20023;-75
2024/02/21 11:09:32;;;;;;;33.53;31.55;;;;;;;10.10;100.00;101842.50;6295790;22;20027;-72